sensor_id;sensor_type;location;lat;lon;timestamp;pressure;altitude;pressure_sealevel;temperature
66372;BMP180;53168;51.146;17.120;2023-07-24T00:00:36;99553.00;;;19.40
66372;BMP180;53168;51.146;17.120;2023-07-24T00:03:28;99546.80;;;19.30
66372;BMP180;53168;51.146;17.120;2023-07-24T00:06:01;99548.60;;;19.20
66372;BMP180;53168;51.146;17.120;2023-07-24T00:08:31;99544.80;;;19.20
66372;BMP180;53168;51.146;17.120;2023-07-24T00:11:01;99545.20;;;19.10
66372;BMP180;53168;51.146;17.120;2023-07-24T00:13:32;99545.00;;;19.00
66372;BMP180;53168;51.146;17.120;2023-07-24T00:16:04;99540.80;;;19.00
66372;BMP180;53168;51.146;17.120;2023-07-24T00:18:35;99547.40;;;18.92
66372;BMP180;53168;51.146;17.120;2023-07-24T00:21:05;99544.80;;;18.90
66372;BMP180;53168;51.146;17.120;2023-07-24T00:23:34;99543.20;;;18.80
66372;BMP180;53168;51.146;17.120;2023-07-24T00:26:04;99540.20;;;18.74
66372;BMP180;53168;51.146;17.120;2023-07-24T00:28:34;99541.40;;;18.70
66372;BMP180;53168;51.146;17.120;2023-07-24T00:31:03;99538.00;;;18.60
66372;BMP180;53168;51.146;17.120;2023-07-24T00:33:33;99539.20;;;18.56
66372;BMP180;53168;51.146;17.120;2023-07-24T00:36:03;99539.40;;;18.50
66372;BMP180;53168;51.146;17.120;2023-07-24T00:38:33;99534.00;;;18.44
66372;BMP180;53168;51.146;17.120;2023-07-24T00:41:03;99537.00;;;18.40
66372;BMP180;53168;51.146;17.120;2023-07-24T00:43:32;99537.40;;;18.30
66372;BMP180;53168;51.146;17.120;2023-07-24T00:46:04;99535.40;;;18.30
66372;BMP180;53168;51.146;17.120;2023-07-24T00:48:33;99524.00;;;18.20
66372;BMP180;53168;51.146;17.120;2023-07-24T00:54:53;99517.80;;;18.10
66372;BMP180;53168;51.146;17.120;2023-07-24T00:57:24;99507.40;;;18.10
66372;BMP180;53168;51.146;17.120;2023-07-24T00:59:54;99509.80;;;18.10
66372;BMP180;53168;51.146;17.120;2023-07-24T01:02:24;99509.40;;;18.10
66372;BMP180;53168;51.146;17.120;2023-07-24T01:04:55;99511.20;;;18.10
66372;BMP180;53168;51.146;17.120;2023-07-24T01:07:25;99510.80;;;18.20
66372;BMP180;53168;51.146;17.120;2023-07-24T01:09:55;99515.60;;;18.30
66372;BMP180;53168;51.146;17.120;2023-07-24T01:12:35;99518.00;;;18.30
66372;BMP180;53168;51.146;17.120;2023-07-24T01:15:14;99529.00;;;18.38
66372;BMP180;53168;51.146;17.120;2023-07-24T01:17:55;99527.00;;;18.40
66372;BMP180;53168;51.146;17.120;2023-07-24T01:20:29;99526.60;;;18.40
66372;BMP180;53168;51.146;17.120;2023-07-24T01:23:28;99531.20;;;18.30
66372;BMP180;53168;51.146;17.120;2023-07-24T01:26:01;99536.80;;;18.30
66372;BMP180;53168;51.146;17.120;2023-07-24T01:28:32;99529.60;;;18.32
66372;BMP180;53168;51.146;17.120;2023-07-24T01:31:01;99531.80;;;18.30
66372;BMP180;53168;51.146;17.120;2023-07-24T01:33:31;99531.00;;;18.32
66372;BMP180;53168;51.146;17.120;2023-07-24T01:36:06;99532.20;;;18.30
66372;BMP180;53168;51.146;17.120;2023-07-24T01:38:38;99528.80;;;18.30
66372;BMP180;53168;51.146;17.120;2023-07-24T01:41:09;99530.60;;;18.30
66372;BMP180;53168;51.146;17.120;2023-07-24T01:43:39;99530.00;;;18.30
66372;BMP180;53168;51.146;17.120;2023-07-24T01:46:09;99523.80;;;18.30
66372;BMP180;53168;51.146;17.120;2023-07-24T01:48:38;99523.60;;;18.20
66372;BMP180;53168;51.146;17.120;2023-07-24T01:51:08;99524.20;;;18.20
66372;BMP180;53168;51.146;17.120;2023-07-24T01:53:38;99518.80;;;18.10
66372;BMP180;53168;51.146;17.120;2023-07-24T01:56:08;99518.80;;;18.10
66372;BMP180;53168;51.146;17.120;2023-07-24T01:58:38;99512.60;;;18.10
66372;BMP180;53168;51.146;17.120;2023-07-24T02:01:07;99514.80;;;18.10
66372;BMP180;53168;51.146;17.120;2023-07-24T02:03:37;99513.00;;;18.10
66372;BMP180;53168;51.146;17.120;2023-07-24T02:06:08;99511.60;;;18.10
66372;BMP180;53168;51.146;17.120;2023-07-24T02:08:38;99511.60;;;18.06
66372;BMP180;53168;51.146;17.120;2023-07-24T02:11:07;99511.00;;;18.08
66372;BMP180;53168;51.146;17.120;2023-07-24T02:13:37;99508.00;;;18.10
66372;BMP180;53168;51.146;17.120;2023-07-24T02:16:07;99506.20;;;18.10
66372;BMP180;53168;51.146;17.120;2023-07-24T02:18:38;99501.00;;;18.20
66372;BMP180;53168;51.146;17.120;2023-07-24T02:21:10;99490.40;;;18.20
66372;BMP180;53168;51.146;17.120;2023-07-24T02:23:39;99486.40;;;18.30
66372;BMP180;53168;51.146;17.120;2023-07-24T02:26:09;99486.20;;;18.30
66372;BMP180;53168;51.146;17.120;2023-07-24T02:28:38;99490.20;;;18.30
66372;BMP180;53168;51.146;17.120;2023-07-24T02:31:08;99485.00;;;18.30
66372;BMP180;53168;51.146;17.120;2023-07-24T02:33:38;99480.00;;;18.30
66372;BMP180;53168;51.146;17.120;2023-07-24T02:36:09;99473.40;;;18.30
66372;BMP180;53168;51.146;17.120;2023-07-24T02:38:39;99469.60;;;18.30
66372;BMP180;53168;51.146;17.120;2023-07-24T02:41:09;99472.00;;;18.38
66372;BMP180;53168;51.146;17.120;2023-07-24T02:43:38;99473.20;;;18.40
66372;BMP180;53168;51.146;17.120;2023-07-24T02:46:08;99459.80;;;18.40
66372;BMP180;53168;51.146;17.120;2023-07-24T02:48:37;99453.80;;;18.40
66372;BMP180;53168;51.146;17.120;2023-07-24T02:51:07;99463.60;;;18.40
66372;BMP180;53168;51.146;17.120;2023-07-24T02:53:37;99466.20;;;18.40
66372;BMP180;53168;51.146;17.120;2023-07-24T02:56:06;99467.20;;;18.36
66372;BMP180;53168;51.146;17.120;2023-07-24T02:58:36;99465.40;;;18.30
66372;BMP180;53168;51.146;17.120;2023-07-24T03:01:07;99465.00;;;18.30
66372;BMP180;53168;51.146;17.120;2023-07-24T03:03:36;99465.40;;;18.20
66372;BMP180;53168;51.146;17.120;2023-07-24T03:06:06;99461.40;;;18.16
66372;BMP180;53168;51.146;17.120;2023-07-24T03:08:36;99456.20;;;18.10
66372;BMP180;53168;51.146;17.120;2023-07-24T03:11:07;99456.40;;;18.00
66372;BMP180;53168;51.146;17.120;2023-07-24T03:13:36;99456.40;;;18.00
66372;BMP180;53168;51.146;17.120;2023-07-24T03:16:06;99459.00;;;17.98
66372;BMP180;53168;51.146;17.120;2023-07-24T03:18:35;99460.40;;;17.96
66372;BMP180;53168;51.146;17.120;2023-07-24T03:21:05;99457.20;;;17.92
66372;BMP180;53168;51.146;17.120;2023-07-24T03:23:35;99456.00;;;17.90
66372;BMP180;53168;51.146;17.120;2023-07-24T03:26:04;99463.60;;;17.90
66372;BMP180;53168;51.146;17.120;2023-07-24T03:28:34;99465.20;;;17.88
66372;BMP180;53168;51.146;17.120;2023-07-24T03:31:04;99464.80;;;17.90
66372;BMP180;53168;51.146;17.120;2023-07-24T03:33:34;99462.20;;;17.90
66372;BMP180;53168;51.146;17.120;2023-07-24T03:36:04;99459.40;;;18.00
66372;BMP180;53168;51.146;17.120;2023-07-24T03:38:34;99459.20;;;18.06
66372;BMP180;53168;51.146;17.120;2023-07-24T03:41:04;99458.40;;;18.10
66372;BMP180;53168;51.146;17.120;2023-07-24T03:43:33;99462.60;;;18.20
66372;BMP180;53168;51.146;17.120;2023-07-24T03:46:04;99458.20;;;18.30
66372;BMP180;53168;51.146;17.120;2023-07-24T03:48:34;99461.20;;;18.40
66372;BMP180;53168;51.146;17.120;2023-07-24T03:51:05;99458.20;;;18.50
66372;BMP180;53168;51.146;17.120;2023-07-24T03:53:36;99455.00;;;18.54
66372;BMP180;53168;51.146;17.120;2023-07-24T03:56:06;99456.20;;;18.60
66372;BMP180;53168;51.146;17.120;2023-07-24T03:58:37;99452.80;;;18.60
66372;BMP180;53168;51.146;17.120;2023-07-24T04:01:08;99450.00;;;18.70
66372;BMP180;53168;51.146;17.120;2023-07-24T04:03:38;99442.60;;;18.70
66372;BMP180;53168;51.146;17.120;2023-07-24T04:06:08;99443.80;;;18.78
66372;BMP180;53168;51.146;17.120;2023-07-24T04:08:38;99444.60;;;18.80
66372;BMP180;53168;51.146;17.120;2023-07-24T04:11:08;99445.00;;;18.90
66372;BMP180;53168;51.146;17.120;2023-07-24T04:13:38;99440.20;;;18.90
66372;BMP180;53168;51.146;17.120;2023-07-24T04:16:08;99446.80;;;18.90
66372;BMP180;53168;51.146;17.120;2023-07-24T04:18:37;99442.60;;;19.00
66372;BMP180;53168;51.146;17.120;2023-07-24T04:21:07;99446.60;;;19.04
66372;BMP180;53168;51.146;17.120;2023-07-24T04:23:36;99452.60;;;19.10
66372;BMP180;53168;51.146;17.120;2023-07-24T04:26:07;99460.60;;;19.24
66372;BMP180;53168;51.146;17.120;2023-07-24T04:28:36;99462.60;;;19.36
66372;BMP180;53168;51.146;17.120;2023-07-24T04:31:05;99461.20;;;19.50
66372;BMP180;53168;51.146;17.120;2023-07-24T04:33:35;99465.40;;;19.66
66372;BMP180;53168;51.146;17.120;2023-07-24T04:36:05;99464.00;;;19.80
66372;BMP180;53168;51.146;17.120;2023-07-24T04:38:35;99462.80;;;19.96
66372;BMP180;53168;51.146;17.120;2023-07-24T04:41:04;99464.40;;;20.02
66372;BMP180;53168;51.146;17.120;2023-07-24T04:43:34;99460.20;;;20.10
66372;BMP180;53168;51.146;17.120;2023-07-24T04:46:03;99455.80;;;20.16
66372;BMP180;53168;51.146;17.120;2023-07-24T04:48:33;99454.40;;;20.20
66372;BMP180;53168;51.146;17.120;2023-07-24T04:51:02;99451.40;;;20.20
66372;BMP180;53168;51.146;17.120;2023-07-24T04:53:32;99453.40;;;20.20
66372;BMP180;53168;51.146;17.120;2023-07-24T04:56:01;99449.20;;;20.20
66372;BMP180;53168;51.146;17.120;2023-07-24T04:58:31;99453.80;;;20.30
66372;BMP180;53168;51.146;17.120;2023-07-24T05:01:04;99450.20;;;20.30
66372;BMP180;53168;51.146;17.120;2023-07-24T05:03:34;99454.60;;;20.40
66372;BMP180;53168;51.146;17.120;2023-07-24T05:06:04;99454.60;;;20.56
66372;BMP180;53168;51.146;17.120;2023-07-24T05:08:33;99451.00;;;20.66
66372;BMP180;53168;51.146;17.120;2023-07-24T05:11:03;99445.80;;;20.78
66372;BMP180;53168;51.146;17.120;2023-07-24T05:13:32;99444.80;;;20.84
66372;BMP180;53168;51.146;17.120;2023-07-24T05:16:01;99439.60;;;20.90
66372;BMP180;53168;51.146;17.120;2023-07-24T05:18:31;99438.00;;;21.00
66372;BMP180;53168;51.146;17.120;2023-07-24T05:21:00;99434.20;;;21.10
66372;BMP180;53168;51.146;17.120;2023-07-24T05:23:30;99434.60;;;21.18
66372;BMP180;53168;51.146;17.120;2023-07-24T05:26:00;99426.80;;;21.22
66372;BMP180;53168;51.146;17.120;2023-07-24T05:28:33;99426.80;;;21.30
66372;BMP180;53168;51.146;17.120;2023-07-24T05:31:03;99420.40;;;21.40
66372;BMP180;53168;51.146;17.120;2023-07-24T05:33:33;99417.00;;;21.46
66372;BMP180;53168;51.146;17.120;2023-07-24T05:36:05;99410.80;;;21.50
66372;BMP180;53168;51.146;17.120;2023-07-24T05:38:34;99414.40;;;21.60
66372;BMP180;53168;51.146;17.120;2023-07-24T05:41:04;99409.00;;;21.70
66372;BMP180;53168;51.146;17.120;2023-07-24T05:43:34;99407.40;;;21.80
66372;BMP180;53168;51.146;17.120;2023-07-24T05:46:04;99401.60;;;21.90
66372;BMP180;53168;51.146;17.120;2023-07-24T05:48:34;99397.40;;;22.00
66372;BMP180;53168;51.146;17.120;2023-07-24T05:51:04;99393.00;;;22.20
66372;BMP180;53168;51.146;17.120;2023-07-24T05:53:33;99383.20;;;22.40
66372;BMP180;53168;51.146;17.120;2023-07-24T05:56:04;99381.00;;;22.56
66372;BMP180;53168;51.146;17.120;2023-07-24T05:58:33;99372.40;;;22.70
66372;BMP180;53168;51.146;17.120;2023-07-24T06:01:03;99370.40;;;22.82
66372;BMP180;53168;51.146;17.120;2023-07-24T06:03:33;99365.20;;;22.94
66372;BMP180;53168;51.146;17.120;2023-07-24T06:06:03;99365.60;;;23.00
66372;BMP180;53168;51.146;17.120;2023-07-24T06:08:33;99367.60;;;23.10
66372;BMP180;53168;51.146;17.120;2023-07-24T06:11:02;99367.20;;;23.20
66372;BMP180;53168;51.146;17.120;2023-07-24T06:13:32;99366.20;;;23.30
66372;BMP180;53168;51.146;17.120;2023-07-24T06:16:01;99365.80;;;23.30
66372;BMP180;53168;51.146;17.120;2023-07-24T06:18:31;99365.60;;;23.38
66372;BMP180;53168;51.146;17.120;2023-07-24T06:21:00;99363.80;;;23.40
66372;BMP180;53168;51.146;17.120;2023-07-24T06:23:30;99363.20;;;23.40
66372;BMP180;53168;51.146;17.120;2023-07-24T06:26:00;99363.60;;;23.40
66372;BMP180;53168;51.146;17.120;2023-07-24T06:31:35;99356.60;;;23.50
66372;BMP180;53168;51.146;17.120;2023-07-24T06:45:11;99360.20;;;24.16
66372;BMP180;53168;51.146;17.120;2023-07-24T06:47:47;99371.60;;;24.50
66372;BMP180;53168;51.146;17.120;2023-07-24T06:50:24;99364.80;;;24.60
66372;BMP180;53168;51.146;17.120;2023-07-24T06:52:59;99357.40;;;24.64
66372;BMP180;53168;51.146;17.120;2023-07-24T06:55:33;99359.00;;;24.70
66372;BMP180;53168;51.146;17.120;2023-07-24T06:58:07;99355.40;;;24.80
66372;BMP180;53168;51.146;17.120;2023-07-24T07:00:40;99356.60;;;24.80
66372;BMP180;53168;51.146;17.120;2023-07-24T07:03:14;99354.80;;;24.80
66372;BMP180;53168;51.146;17.120;2023-07-24T07:05:50;99349.60;;;24.80
66372;BMP180;53168;51.146;17.120;2023-07-24T07:08:24;99349.40;;;24.90
66372;BMP180;53168;51.146;17.120;2023-07-24T07:10:59;99347.80;;;24.92
66372;BMP180;53168;51.146;17.120;2023-07-24T07:13:33;99349.40;;;25.02
66372;BMP180;53168;51.146;17.120;2023-07-24T07:16:07;99344.40;;;25.20
66372;BMP180;53168;51.146;17.120;2023-07-24T07:18:41;99338.40;;;25.32
66372;BMP180;53168;51.146;17.120;2023-07-24T07:21:15;99335.60;;;25.50
66372;BMP180;53168;51.146;17.120;2023-07-24T07:24:00;99334.20;;;25.70
66372;BMP180;53168;51.146;17.120;2023-07-24T07:27:02;99328.20;;;25.80
66372;BMP180;53168;51.146;17.120;2023-07-24T07:29:36;99331.40;;;25.88
66372;BMP180;53168;51.146;17.120;2023-07-24T07:32:23;99327.60;;;25.90
66372;BMP180;53168;51.146;17.120;2023-07-24T07:34:58;99330.80;;;26.00
66372;BMP180;53168;51.146;17.120;2023-07-24T07:37:32;99330.80;;;26.06
66372;BMP180;53168;51.146;17.120;2023-07-24T07:40:08;99331.60;;;26.10
66372;BMP180;53168;51.146;17.120;2023-07-24T07:42:42;99332.40;;;26.10
66372;BMP180;53168;51.146;17.120;2023-07-24T07:45:17;99330.00;;;26.10
66372;BMP180;53168;51.146;17.120;2023-07-24T07:47:51;99328.20;;;26.20
66372;BMP180;53168;51.146;17.120;2023-07-24T07:50:26;99328.80;;;26.34
66372;BMP180;53168;51.146;17.120;2023-07-24T07:53:04;99323.20;;;26.50
66372;BMP180;53168;51.146;17.120;2023-07-24T07:55:38;99318.20;;;26.60
66372;BMP180;53168;51.146;17.120;2023-07-24T07:58:12;99309.20;;;26.70
66372;BMP180;53168;51.146;17.120;2023-07-24T08:00:46;99312.40;;;26.80
66372;BMP180;53168;51.146;17.120;2023-07-24T08:03:24;99312.20;;;26.94
66372;BMP180;53168;51.146;17.120;2023-07-24T08:06:04;99300.60;;;27.10
66372;BMP180;53168;51.146;17.120;2023-07-24T08:08:38;99305.00;;;27.20
66372;BMP180;53168;51.146;17.120;2023-07-24T08:11:19;99309.20;;;27.40
66372;BMP180;53168;51.146;17.120;2023-07-24T08:13:57;99316.60;;;27.60
66372;BMP180;53168;51.146;17.120;2023-07-24T08:16:30;99316.60;;;27.60
66372;BMP180;53168;51.146;17.120;2023-07-24T08:19:06;99319.00;;;27.76
66372;BMP180;53168;51.146;17.120;2023-07-24T08:21:42;99324.80;;;27.80
66372;BMP180;53168;51.146;17.120;2023-07-24T08:24:45;99314.40;;;27.90
66372;BMP180;53168;51.146;17.120;2023-07-24T08:27:19;99311.60;;;28.02
66372;BMP180;53168;51.146;17.120;2023-07-24T08:29:55;99307.40;;;28.20
66372;BMP180;53168;51.146;17.120;2023-07-24T08:32:47;99314.00;;;28.40
66372;BMP180;53168;51.146;17.120;2023-07-24T08:35:58;99314.80;;;28.40
66372;BMP180;53168;51.146;17.120;2023-07-24T08:38:35;99311.60;;;28.30
66372;BMP180;53168;51.146;17.120;2023-07-24T08:41:13;99318.80;;;28.34
66372;BMP180;53168;51.146;17.120;2023-07-24T08:43:54;99318.20;;;28.22
66372;BMP180;53168;51.146;17.120;2023-07-24T08:46:33;99304.00;;;28.20
66372;BMP180;53168;51.146;17.120;2023-07-24T08:49:20;99303.00;;;28.24
66372;BMP180;53168;51.146;17.120;2023-07-24T08:51:58;99309.40;;;28.34
66372;BMP180;53168;51.146;17.120;2023-07-24T08:54:36;99311.40;;;28.50
66372;BMP180;53168;51.146;17.120;2023-07-24T08:57:14;99302.20;;;28.54
66372;BMP180;53168;51.146;17.120;2023-07-24T08:59:51;99310.60;;;28.62
66372;BMP180;53168;51.146;17.120;2023-07-24T09:02:27;99295.60;;;28.80
66372;BMP180;53168;51.146;17.120;2023-07-24T09:05:03;99293.80;;;29.00
66372;BMP180;53168;51.146;17.120;2023-07-24T09:07:40;99293.60;;;29.10
66372;BMP180;53168;51.146;17.120;2023-07-24T09:10:26;99289.80;;;29.08
66372;BMP180;53168;51.146;17.120;2023-07-24T09:13:01;99286.00;;;29.18
66372;BMP180;53168;51.146;17.120;2023-07-24T09:15:49;99284.60;;;29.30
66372;BMP180;53168;51.146;17.120;2023-07-24T09:18:24;99283.20;;;29.20
66372;BMP180;53168;51.146;17.120;2023-07-24T09:21:00;99276.40;;;29.30
66372;BMP180;53168;51.146;17.120;2023-07-24T09:23:34;99266.20;;;29.32
66372;BMP180;53168;51.146;17.120;2023-07-24T09:26:11;99261.40;;;29.60
66372;BMP180;53168;51.146;17.120;2023-07-24T09:28:54;99260.80;;;29.90
66372;BMP180;53168;51.146;17.120;2023-07-24T09:31:40;99262.40;;;30.00
66372;BMP180;53168;51.146;17.120;2023-07-24T09:34:19;99258.20;;;30.00
66372;BMP180;53168;51.146;17.120;2023-07-24T09:36:54;99262.80;;;29.96
66372;BMP180;53168;51.146;17.120;2023-07-24T09:39:30;99254.80;;;29.90
66372;BMP180;53168;51.146;17.120;2023-07-24T09:42:08;99262.40;;;30.00
66372;BMP180;53168;51.146;17.120;2023-07-24T09:44:42;99263.20;;;30.00
66372;BMP180;53168;51.146;17.120;2023-07-24T09:47:17;99268.80;;;30.00
66372;BMP180;53168;51.146;17.120;2023-07-24T09:49:56;99270.80;;;29.90
66372;BMP180;53168;51.146;17.120;2023-07-24T09:52:32;99262.60;;;29.80
66372;BMP180;53168;51.146;17.120;2023-07-24T09:55:14;99250.80;;;30.04
66372;BMP180;53168;51.146;17.120;2023-07-24T09:57:50;99242.00;;;30.40
66372;BMP180;53168;51.146;17.120;2023-07-24T10:00:29;99234.80;;;30.64
66372;BMP180;53168;51.146;17.120;2023-07-24T10:03:05;99242.80;;;30.82
66372;BMP180;53168;51.146;17.120;2023-07-24T10:08:43;99242.20;;;31.20
66372;BMP180;53168;51.146;17.120;2023-07-24T10:11:17;99251.40;;;31.40
66372;BMP180;53168;51.146;17.120;2023-07-24T10:13:54;99255.60;;;31.54
66372;BMP180;53168;51.146;17.120;2023-07-24T10:16:32;99247.80;;;31.60
66372;BMP180;53168;51.146;17.120;2023-07-24T10:19:16;99245.40;;;31.86
66372;BMP180;53168;51.146;17.120;2023-07-24T10:21:54;99246.20;;;32.12
66372;BMP180;53168;51.146;17.120;2023-07-24T10:24:43;99238.80;;;32.10
66372;BMP180;53168;51.146;17.120;2023-07-24T10:27:24;99227.20;;;32.00
66372;BMP180;53168;51.146;17.120;2023-07-24T10:30:05;99232.40;;;32.10
66372;BMP180;53168;51.146;17.120;2023-07-24T10:33:02;99229.40;;;32.40
66372;BMP180;53168;51.146;17.120;2023-07-24T10:35:43;99231.80;;;32.30
66372;BMP180;53168;51.146;17.120;2023-07-24T10:38:19;99239.00;;;32.10
66372;BMP180;53168;51.146;17.120;2023-07-24T10:41:05;99243.20;;;32.10
66372;BMP180;53168;51.146;17.120;2023-07-24T10:43:49;99240.40;;;31.90
66372;BMP180;53168;51.146;17.120;2023-07-24T10:46:23;99237.20;;;31.52
66372;BMP180;53168;51.146;17.120;2023-07-24T10:49:26;99240.80;;;31.50
66372;BMP180;53168;51.146;17.120;2023-07-24T10:52:02;99241.20;;;31.50
66372;BMP180;53168;51.146;17.120;2023-07-24T10:54:37;99235.00;;;31.50
66372;BMP180;53168;51.146;17.120;2023-07-24T10:57:11;99225.80;;;31.40
66372;BMP180;53168;51.146;17.120;2023-07-24T10:59:54;99224.40;;;31.38
66372;BMP180;53168;51.146;17.120;2023-07-24T11:02:28;99218.60;;;31.00
66372;BMP180;53168;51.146;17.120;2023-07-24T11:05:06;99210.80;;;30.70
66372;BMP180;53168;51.146;17.120;2023-07-24T11:07:58;99207.20;;;30.50
66372;BMP180;53168;51.146;17.120;2023-07-24T11:10:36;99194.60;;;30.60
66372;BMP180;53168;51.146;17.120;2023-07-24T11:13:22;99199.00;;;30.80
66372;BMP180;53168;51.146;17.120;2023-07-24T11:16:05;99183.60;;;30.82
66372;BMP180;53168;51.146;17.120;2023-07-24T11:18:50;99174.20;;;31.00
66372;BMP180;53168;51.146;17.120;2023-07-24T11:21:28;99182.00;;;31.62
66372;BMP180;53168;51.146;17.120;2023-07-24T11:24:09;99177.20;;;32.00
66372;BMP180;53168;51.146;17.120;2023-07-24T11:26:43;99174.40;;;32.22
66372;BMP180;53168;51.146;17.120;2023-07-24T11:29:19;99172.40;;;32.50
66372;BMP180;53168;51.146;17.120;2023-07-24T11:31:58;99134.00;;;33.40
66372;BMP180;53168;51.146;17.120;2023-07-24T11:34:32;99139.20;;;34.32
66372;BMP180;53168;51.146;17.120;2023-07-24T11:37:08;99133.80;;;34.78
66372;BMP180;53168;51.146;17.120;2023-07-24T11:39:42;99183.40;;;34.46
66372;BMP180;53168;51.146;17.120;2023-07-24T11:42:18;99177.60;;;33.64
66372;BMP180;53168;51.146;17.120;2023-07-24T11:44:52;99152.20;;;33.60
66372;BMP180;53168;51.146;17.120;2023-07-24T11:47:26;99160.20;;;33.92
66372;BMP180;53168;51.146;17.120;2023-07-24T11:50:07;99168.00;;;33.86
66372;BMP180;53168;51.146;17.120;2023-07-24T11:52:44;99158.60;;;33.50
66372;BMP180;53168;51.146;17.120;2023-07-24T11:55:29;99132.80;;;33.70
66372;BMP180;53168;51.146;17.120;2023-07-24T11:58:06;99128.60;;;34.46
66372;BMP180;53168;51.146;17.120;2023-07-24T12:00:39;99112.40;;;34.72
66372;BMP180;53168;51.146;17.120;2023-07-24T12:03:14;99100.00;;;35.20
66372;BMP180;53168;51.146;17.120;2023-07-24T12:05:49;99083.00;;;35.66
66372;BMP180;53168;51.146;17.120;2023-07-24T12:11:33;99069.40;;;37.00
66372;BMP180;53168;51.146;17.120;2023-07-24T12:14:08;99096.80;;;37.30
66372;BMP180;53168;51.146;17.120;2023-07-24T12:16:42;99109.20;;;36.64
66372;BMP180;53168;51.146;17.120;2023-07-24T12:19:16;99122.40;;;36.64
66372;BMP180;53168;51.146;17.120;2023-07-24T12:21:51;99124.60;;;35.80
66372;BMP180;53168;51.146;17.120;2023-07-24T12:24:25;99130.40;;;35.12
66372;BMP180;53168;51.146;17.120;2023-07-24T12:30:22;99123.40;;;34.18
66372;BMP180;53168;51.146;17.120;2023-07-24T12:33:01;99114.00;;;33.86
66372;BMP180;53168;51.146;17.120;2023-07-24T12:39:41;99118.60;;;33.24
66372;BMP180;53168;51.146;17.120;2023-07-24T12:43:38;99113.00;;;32.92
66372;BMP180;53168;51.146;17.120;2023-07-24T12:46:36;99109.60;;;32.80
66372;BMP180;53168;51.146;17.120;2023-07-24T12:49:18;99100.80;;;32.60
66372;BMP180;53168;51.146;17.120;2023-07-24T12:52:00;99103.40;;;32.46
66372;BMP180;53168;51.146;17.120;2023-07-24T12:54:46;99094.00;;;32.30
66372;BMP180;53168;51.146;17.120;2023-07-24T12:57:30;99095.00;;;32.10
66372;BMP180;53168;51.146;17.120;2023-07-24T13:00:11;99089.60;;;32.10
66372;BMP180;53168;51.146;17.120;2023-07-24T13:03:05;99087.00;;;32.20
66372;BMP180;53168;51.146;17.120;2023-07-24T13:06:11;99083.00;;;32.30
66372;BMP180;53168;51.146;17.120;2023-07-24T13:08:41;99083.60;;;32.40
66372;BMP180;53168;51.146;17.120;2023-07-24T13:11:11;99082.60;;;32.50
66372;BMP180;53168;51.146;17.120;2023-07-24T13:14:00;99077.00;;;32.50
66372;BMP180;53168;51.146;17.120;2023-07-24T13:17:16;99081.60;;;32.68
66372;BMP180;53168;51.146;17.120;2023-07-24T13:19:58;99081.20;;;32.70
66372;BMP180;53168;51.146;17.120;2023-07-24T13:25:55;99067.80;;;32.70
66372;BMP180;53168;51.146;17.120;2023-07-24T13:28:40;99069.60;;;32.70
66372;BMP180;53168;51.146;17.120;2023-07-24T13:31:19;99066.60;;;32.70
66372;BMP180;53168;51.146;17.120;2023-07-24T13:34:03;99062.20;;;32.80
66372;BMP180;53168;51.146;17.120;2023-07-24T13:36:47;99059.40;;;32.80
66372;BMP180;53168;51.146;17.120;2023-07-24T13:39:23;99058.80;;;32.74
66372;BMP180;53168;51.146;17.120;2023-07-24T13:42:08;99048.40;;;32.70
66372;BMP180;53168;51.146;17.120;2023-07-24T13:44:53;99051.40;;;32.70
66372;BMP180;53168;51.146;17.120;2023-07-24T13:47:32;99037.00;;;32.60
66372;BMP180;53168;51.146;17.120;2023-07-24T13:50:26;99046.60;;;32.60
66372;BMP180;53168;51.146;17.120;2023-07-24T13:53:01;99049.00;;;32.50
66372;BMP180;53168;51.146;17.120;2023-07-24T13:55:35;99038.20;;;32.30
66372;BMP180;53168;51.146;17.120;2023-07-24T13:58:18;99039.60;;;32.30
66372;BMP180;53168;51.146;17.120;2023-07-24T14:01:23;99024.00;;;32.40
66372;BMP180;53168;51.146;17.120;2023-07-24T14:04:01;99016.60;;;32.50
66372;BMP180;53168;51.146;17.120;2023-07-24T14:14:35;98991.40;;;34.88
66372;BMP180;53168;51.146;17.120;2023-07-24T14:22:04;99011.00;;;33.72
66372;BMP180;53168;51.146;17.120;2023-07-24T14:25:03;99006.00;;;33.94
66372;BMP180;53168;51.146;17.120;2023-07-24T14:27:40;98990.20;;;34.62
66372;BMP180;53168;51.146;17.120;2023-07-24T14:30:19;98980.20;;;35.28
66372;BMP180;53168;51.146;17.120;2023-07-24T14:32:53;98987.20;;;35.44
66372;BMP180;53168;51.146;17.120;2023-07-24T14:35:38;98992.20;;;34.88
66372;BMP180;53168;51.146;17.120;2023-07-24T14:38:21;98987.40;;;34.16
66372;BMP180;53168;51.146;17.120;2023-07-24T14:45:27;98971.00;;;33.30
66372;BMP180;53168;51.146;17.120;2023-07-24T14:55:47;98946.00;;;33.70
66372;BMP180;53168;51.146;17.120;2023-07-24T15:02:58;98943.80;;;33.90
66372;BMP180;53168;51.146;17.120;2023-07-24T15:05:35;98940.20;;;33.68
66372;BMP180;53168;51.146;17.120;2023-07-24T15:12:14;98931.80;;;33.00
66372;BMP180;53168;51.146;17.120;2023-07-24T15:14:52;98925.80;;;32.70
66372;BMP180;53168;51.146;17.120;2023-07-24T15:17:26;98919.40;;;32.48
66372;BMP180;53168;51.146;17.120;2023-07-24T15:20:00;98924.00;;;32.12
66372;BMP180;53168;51.146;17.120;2023-07-24T15:22:35;98929.40;;;31.62
66372;BMP180;53168;51.146;17.120;2023-07-24T15:25:16;98923.00;;;31.20
66372;BMP180;53168;51.146;17.120;2023-07-24T15:27:49;98926.00;;;30.90
66372;BMP180;53168;51.146;17.120;2023-07-24T15:30:24;98924.00;;;30.68
66372;BMP180;53168;51.146;17.120;2023-07-24T15:32:58;98925.20;;;30.30
66372;BMP180;53168;51.146;17.120;2023-07-24T15:35:32;98914.00;;;30.10
66372;BMP180;53168;51.146;17.120;2023-07-24T15:38:06;98906.20;;;30.00
66372;BMP180;53168;51.146;17.120;2023-07-24T15:40:41;98895.20;;;30.00
66372;BMP180;53168;51.146;17.120;2023-07-24T15:43:16;98890.20;;;30.00
66372;BMP180;53168;51.146;17.120;2023-07-24T15:45:50;98885.80;;;30.00
66372;BMP180;53168;51.146;17.120;2023-07-24T15:48:24;98876.40;;;30.14
66372;BMP180;53168;51.146;17.120;2023-07-24T15:50:59;98873.00;;;30.30